KBUF

Buffalo Niagara International Airport

Buffalo, New York, USA
METAR KBUF 242054Z 16009KT 10SM OVC032 20/13 A3027 RMK AO2 SLP252 T02000133 56012
Observed Flight Rules
Sep-24 @ 20:54 UTC (59 minutes ago) Visual Flight Rules
Wind Visibility Clouds
160° at 9 knots 10 miles
  • Overcast at 3,200' AGL
Temperatures Readings
Current 20°C / 68°F
Dewpoint 13°C / 55°F
Humidity 64%
Altimeter 30.27" Hg
Pressure 1025.2 hPa
Elevation 211
METAR KBUF 242054Z 16009KT 10SM OVC032 20/13 A3027 RMK AO2 SLP252 T02000133 56012
Observed Flight Rules
Sep-24 @ 20:54 UTC
(59 minutes ago)
VFR
Wind Visibility
160° at 9 knots 10 miles
Clouds
  • Overcast at 3,200' AGL
Temperature Dewpoint
20°C / 68°F 13°C / 55°F
Humidity Altimeter Pressure
64% 30.27" Hg 1025.2 hPa